Klingerstown, PA (17941)

10:33 AM EDT on August 21, 2019 (GMT -0400)
Glenn Heights | | Change Station

Elev 792 ft 40.60 °N, 76.70 °W | Updated 6 seconds ago

Rain
Rain
73 °F
Feels Like 70 °F
N
0
Wind Variable Wind from SSE
Gusts 0.0 mph

Today
High -- | Low -- °F
--% Chance of Precip.
Yesterday
High -- | Low -- °F
Precip. -- in
Pressure 29.96 in
Visibility 3.0 miles
Clouds Overcast 4300 ft
Heat Index 70 °F
Dew Point 70 °F
Humidity 91%
Rainfall 0.08 in
Snow Depth Not available.
6:22 AM 7:56 PM
Waning Gibbous, 70% visible
METAR KSEG 211353Z AUTO 20003KT 3SM -RA BR OVC043 23/21 A2996 RMK AO2 RAB29 SLP143 P0002 T02280211
Pressure 29.96 in
Visibility 3.0 miles
Clouds Overcast 4300 ft
Heat Index 70 °F
Dew Point 70 °F
Humidity 91%
Rainfall 0.08 in
Snow Depth Not available.
6:22 AM 7:56 PM
Waning Gibbous, 70% visible
METAR KSEG 211353Z AUTO 20003KT 3SM -RA BR OVC043 23/21 A2996 RMK AO2 RAB29 SLP143 P0002 T02280211

Get Severe Weather Alerts

Thanks for signing up!

Be on the lookout for a verification email in your inbox.

You'll start receiving the daily forecast at 6 AM.

×

10-Day Weather Forecast

Almanac

Astronomy

Aug. 21, 2019 Rise Set
Actual Time
Civil Twilight
Nautical Twilight
Astronomical Twilight
Moon
Length of Visible Light
Length of Day
Tomorrow will be .
, % of the Moon is Illuminated

Today's Extremes

State Highs State Lows

Community

WunderPhotos

Category 6

Welcome to Category 6. This is the collective home for Weather Underground's featured writeups by Dr. Jeff Masters (right), Bob Henson (left), Chris Burt, and other regular contributors.

Nearby

Air Quality

  Air Quality AQ Index Pollutant
Not available.

Snow Depth

Station Depth Elevation

Earthquake Activity

City Distance Mag. Time & Date
Minimum magnitude displayed is 2.5.

Coastal Water Temperatures

Place Temperature

Stations

Nearby Weather Stations

Station Location Temp. Windchill Dew Point Humidity Wind Precip. Elev Updated Type
                   

Watches & Warnings

There are currently no watches in effect.